createdAt,value
2022-10-15T04:00:25.449Z,100565.75
2022-10-15T04:03:29.217Z,100564.75
2022-10-15T04:06:34.154Z,100559.28
2022-10-15T04:09:39.293Z,100556.84
2022-10-15T04:12:47.497Z,100554.19
2022-10-15T04:15:50.720Z,100549.13
2022-10-15T04:18:52.841Z,100548.22
2022-10-15T04:21:55.198Z,100551.41
2022-10-15T04:24:59.766Z,100555.50
2022-10-15T04:28:02.333Z,100556.06
2022-10-15T04:31:04.738Z,100550.00
2022-10-15T04:34:07.803Z,100550.09
2022-10-15T04:37:10.722Z,100553.88
2022-10-15T04:40:13.602Z,100560.13
2022-10-15T04:43:15.825Z,100567.69
2022-10-15T04:46:18.434Z,100569.31
2022-10-15T04:49:21.414Z,100561.50
2022-10-15T04:52:24.107Z,100559.69
2022-10-15T04:55:26.553Z,100557.16
2022-10-15T04:58:33.110Z,100561.47
2022-10-15T05:01:35.372Z,100566.91
2022-10-15T05:04:38.498Z,100554.53
2022-10-15T05:07:40.561Z,100560.34
2022-10-15T05:10:44.171Z,100561.19
2022-10-15T05:13:47.173Z,100567.59
2022-10-15T05:16:49.549Z,100559.75
2022-10-15T05:19:51.953Z,100577.25
2022-10-15T05:22:55.597Z,100569.28
2022-10-15T05:26:03.794Z,100577.22
2022-10-15T05:29:06.302Z,100571.12
2022-10-15T05:32:08.679Z,100574.44
2022-10-15T05:35:11.105Z,100571.22
2022-10-15T05:38:15.781Z,100562.97
2022-10-15T05:41:18.509Z,100567.06
2022-10-15T05:44:20.573Z,100565.87
2022-10-15T05:47:23.063Z,100561.53
2022-10-15T05:50:31.034Z,100559.09
2022-10-15T05:53:33.945Z,100573.63
2022-10-15T05:56:36.657Z,100574.81
2022-10-15T05:59:38.990Z,100573.03
2022-10-15T06:02:41.288Z,100579.09
2022-10-15T06:05:43.666Z,100571.44
2022-10-15T06:08:46.104Z,100581.88
2022-10-15T06:11:48.399Z,100575.72
2022-10-15T06:14:53.448Z,100593.25
2022-10-15T06:17:55.752Z,100602.31
2022-10-15T06:20:58.101Z,100603.44
2022-10-15T06:24:00.423Z,100603.63
2022-10-15T06:27:02.462Z,100601.41
2022-10-15T06:30:05.420Z,100609.63
2022-10-15T06:33:07.467Z,100608.25
2022-10-15T06:36:11.074Z,100611.22
2022-10-15T06:39:13.089Z,100618.41
2022-10-15T06:42:16.662Z,100614.78
2022-10-15T06:45:22.419Z,100611.44
2022-10-15T06:48:24.741Z,100610.84
2022-10-15T06:51:26.803Z,100617.41
2022-10-15T06:54:29.106Z,100616.78
2022-10-15T06:57:31.421Z,100621.28
2022-10-15T07:03:39.061Z,100623.94
2022-10-15T07:06:42.169Z,100626.72
2022-10-15T07:09:44.190Z,100628.53
2022-10-15T07:12:46.704Z,100631.28
2022-10-15T07:15:53.722Z,100634.06
2022-10-15T07:18:56.079Z,100635.09
2022-10-15T07:21:58.147Z,100636.31
2022-10-15T07:25:00.424Z,100638.91
2022-10-15T07:28:02.560Z,100630.28
2022-10-15T07:31:06.623Z,100628.62
2022-10-15T07:34:08.650Z,100632.31
2022-10-15T07:37:10.941Z,100626.22
2022-10-15T07:40:13.108Z,100622.88
2022-10-15T07:43:16.833Z,100619.41
2022-10-15T07:46:18.882Z,100623.91
2022-10-15T07:49:21.159Z,100618.69
2022-10-15T07:52:23.429Z,100624.09
2022-10-15T07:55:25.946Z,100618.12
2022-10-15T07:58:30.282Z,100626.09
2022-10-15T08:01:33.759Z,100621.81
2022-10-15T08:08:48.531Z,100629.75
2022-10-15T08:11:51.113Z,100635.97
2022-10-15T08:14:54.681Z,100640.47
2022-10-15T08:17:56.970Z,100637.84
2022-10-15T08:21:00.868Z,100645.72
2022-10-15T08:24:03.216Z,100642.38
2022-10-15T08:27:08.273Z,100646.75
2022-10-15T08:30:11.472Z,100642.44
2022-10-15T08:33:13.498Z,100634.63
2022-10-15T08:36:15.787Z,100629.44
2022-10-15T08:39:19.772Z,100633.84
2022-10-15T08:42:31.830Z,100628.59
2022-10-15T08:45:42.350Z,100628.69
2022-10-15T08:48:53.193Z,100629.59
2022-10-15T08:52:06.852Z,100626.09
2022-10-15T08:55:13.052Z,100627.84
2022-10-15T08:58:30.242Z,100636.63
2022-10-15T09:01:43.966Z,100626.97
2022-10-15T09:05:26.410Z,100626.09
2022-10-15T09:08:38.397Z,100628.69
2022-10-15T09:12:01.699Z,100613.75
2022-10-15T09:15:10.503Z,100619.03
2022-10-15T09:18:20.464Z,100633.97
2022-10-15T09:21:27.844Z,100634.84
2022-10-15T09:24:35.172Z,100643.63
2022-10-15T09:27:39.739Z,100648.03
2022-10-15T09:30:59.634Z,100641.84
2022-10-15T09:34:19.429Z,100641.88
2022-10-15T09:37:29.751Z,100646.25
2022-10-15T09:40:59.105Z,100643.59
2022-10-15T09:44:04.573Z,100640.03
2022-10-15T09:47:34.222Z,100632.09
2022-10-15T09:50:44.141Z,100646.19
2022-10-15T09:53:56.872Z,100650.56
2022-10-15T09:56:58.967Z,100644.31
2022-10-15T10:00:07.430Z,100631.91
2022-10-15T10:03:15.887Z,100635.31
2022-10-15T10:06:18.493Z,100629.16
2022-10-15T10:09:24.554Z,100629.97
2022-10-15T10:12:33.910Z,100627.19
2022-10-15T10:15:41.240Z,100621.78
2022-10-15T10:18:50.934Z,100616.47
2022-10-15T10:22:07.034Z,100609.34
2022-10-15T10:25:31.885Z,100619.06
2022-10-15T10:28:44.183Z,100612.12
2022-10-15T10:31:51.206Z,100610.37
2022-10-15T10:35:04.005Z,100612.84
2022-10-15T10:38:06.392Z,100608.22
2022-10-15T10:41:10.487Z,100598.47
2022-10-15T10:44:21.225Z,100597.56
2022-10-15T10:47:26.045Z,100589.34
2022-10-15T10:50:33.888Z,100583.13
2022-10-15T10:53:46.370Z,100569.75
2022-10-15T10:56:48.976Z,100570.44
2022-10-15T10:59:53.745Z,100574.78
2022-10-15T11:02:56.982Z,100571.28
2022-10-15T11:06:30.084Z,100568.69
2022-10-15T11:09:50.045Z,100567.81
2022-10-15T11:13:30.450Z,100562.53
2022-10-15T11:17:15.513Z,100559.72
2022-10-15T11:20:46.212Z,100557.72
2022-10-15T11:24:15.057Z,100547.91
2022-10-15T11:27:44.880Z,100545.22
2022-10-15T11:31:06.125Z,100536.50
2022-10-15T11:34:16.419Z,100530.41
2022-10-15T11:37:41.140Z,100524.13
2022-10-15T11:40:51.845Z,100513.56
2022-10-15T11:44:12.560Z,100519.06
2022-10-15T11:47:32.889Z,100511.09
2022-10-15T11:50:37.293Z,100517.41
2022-10-15T11:54:01.872Z,100513.00
2022-10-15T11:57:04.982Z,100507.66
2022-10-15T12:00:29.505Z,100510.22
2022-10-15T12:03:39.081Z,100519.00
2022-10-15T12:06:46.511Z,100518.06
2022-10-15T12:09:53.826Z,100512.59
2022-10-15T12:13:08.895Z,100505.37
2022-10-15T12:16:25.618Z,100498.13
2022-10-15T12:19:44.885Z,100493.81
2022-10-15T12:22:47.080Z,100493.75
2022-10-15T12:25:49.269Z,100497.22
2022-10-15T12:28:59.571Z,100496.22
2022-10-15T12:32:04.543Z,100488.16
2022-10-15T12:35:15.719Z,100480.94
2022-10-15T12:38:29.314Z,100494.16
2022-10-15T12:41:47.908Z,100490.69
2022-10-15T12:44:50.876Z,100490.78
2022-10-15T12:48:16.221Z,100486.53
2022-10-15T12:51:24.044Z,100483.03
2022-10-15T12:54:41.476Z,100485.78
2022-10-15T12:57:46.486Z,100479.75
2022-10-15T13:00:48.816Z,100471.94
2022-10-15T13:03:50.876Z,100476.59
2022-10-15T13:06:53.507Z,100467.72
2022-10-15T13:09:55.977Z,100480.06
2022-10-15T13:13:03.700Z,100486.09
2022-10-15T13:16:09.500Z,100481.84
2022-10-15T13:19:25.577Z,100492.47
2022-10-15T13:22:30.450Z,100486.22
2022-10-15T13:25:33.153Z,100487.09
2022-10-15T13:28:38.019Z,100488.06
2022-10-15T13:31:40.987Z,100482.97
2022-10-15T13:34:43.591Z,100482.13
2022-10-15T13:37:46.853Z,100486.75
2022-10-15T13:40:51.031Z,100480.63
2022-10-15T13:43:58.603Z,100476.19
2022-10-15T13:47:00.568Z,100486.50
2022-10-15T13:50:26.398Z,100484.97
2022-10-15T13:53:37.513Z,100498.25
2022-10-15T13:56:47.750Z,100493.94
2022-10-15T13:59:54.037Z,100494.97
2022-10-15T14:03:16.603Z,100493.25
2022-10-15T14:06:29.916Z,100499.53
2022-10-15T14:09:38.366Z,100484.59
2022-10-15T14:12:40.679Z,100489.84
2022-10-15T14:15:47.073Z,100491.59
2022-10-15T14:18:52.357Z,100488.00
2022-10-15T14:21:54.552Z,100482.78
2022-10-15T14:24:57.173Z,100482.88
2022-10-15T14:27:59.215Z,100483.00
2022-10-15T14:31:02.325Z,100487.47
2022-10-15T14:34:04.826Z,100481.34
2022-10-15T14:37:28.423Z,100476.09
2022-10-15T14:40:30.785Z,100474.50
2022-10-15T14:43:35.239Z,100470.97
2022-10-15T14:46:41.449Z,100470.19
